HappyWetter - St.Margarethen im Burgenland
Wetterdaten: aktuell Montag, 22.04.2019 10:19
Datum Zeit Temp. A. Feuchte A. Luftdruck Regen Wind Richtung Richtung Sonnenschein ET Solar Taupunkt Windchill Windben Empfang
22.04.2019 10:19 16,3 C 53 % 1012,7 hPa 0,0 l/m 7,3 km/h (2 Bft) N-NO 24 60 min 0,305 mm 617 W/m 6,7 C 15,8 C 9,7 km/h (2 Bft) 100,00 %
22.04.2019 09:19 14,6 C 56 % 1013,2 hPa 0,0 l/m 4,3 km/h (1 Bft) N 360 60 min 0,178 mm 483 W/m 5,9 C 14,6 C 6,4 km/h (2 Bft) 100,00 %
22.04.2019 08:19 10,9 C 67 % 1013,4 hPa 0,0 l/m 1,5 km/h (1 Bft) W-SW 257 60 min 0,102 mm 330 W/m 5,0 C 10,9 C 3,2 km/h (1 Bft) 96,00 %
22.04.2019 07:19 6,4 C 81 % 1013,7 hPa 0,0 l/m 1,5 km/h (1 Bft) W 261 4 min 0,025 mm 162 W/m 3,4 C 6,4 C 3,2 km/h (1 Bft) 95,83 %
22.04.2019 06:19 3,3 C 78 % 1013,7 hPa 0,0 l/m 0,4 km/h (0 Bft) S-SW 198 0 min 0,000 mm 18 W/m -0,2 C 3,3 C 1,6 km/h (1 Bft) 100,00 %
22.04.2019 05:19 4,2 C 77 % 1013,9 hPa 0,0 l/m 0,0 km/h (0 Bft) SW 236 0 min 0,025 mm 0 W/m 0,5 C 4,2 C 0,0 km/h (0 Bft) 95,83 %
22.04.2019 04:19 5,2 C 75 % 1014,4 hPa 0,0 l/m 1,5 km/h (1 Bft) W-SW 240 0 min 0,001 mm 0 W/m 1,1 C 5,2 C 3,2 km/h (1 Bft) 100,00 %
22.04.2019 03:19 5,9 C 72 % 1015,1 hPa 0,0 l/m 0,8 km/h (0 Bft) SW 232 0 min 0,025 mm 0 W/m 1,2 C 5,9 C 1,6 km/h (1 Bft) 100,00 %
22.04.2019 02:19 6,4 C 69 % 1015,7 hPa 0,0 l/m 1,3 km/h (1 Bft) S 186 0 min 0,026 mm 0 W/m 1,1 C 6,4 C 1,6 km/h (1 Bft) 100,00 %
22.04.2019 01:19 6,7 C 70 % 1016,3 hPa 0,0 l/m 3,3 km/h (1 Bft) S-SW 194 0 min 0,025 mm 0 W/m 1,6 C 6,7 C 4,8 km/h (1 Bft) 100,00 %
22.04.2019 00:19 7,3 C 65 % 1016,8 hPa 0,0 l/m 1,2 km/h (1 Bft) O-SO 115 0 min 0,000 mm 0 W/m 1,2 C 7,3 C 3,2 km/h (1 Bft) 100,00 %
21.04.2019 23:19 9,2 C 63 % 1017,1 hPa 0,0 l/m 2,0 km/h (1 Bft) S-SW 213 0 min 0,025 mm 0 W/m 2,5 C 9,2 C 3,2 km/h (1 Bft) 100,00 %
21.04.2019 22:19 10,7 C 58 % 1017,1 hPa 0,0 l/m 0,5 km/h (0 Bft) O 94 0 min 0,051 mm 0 W/m 2,8 C 10,7 C 1,6 km/h (1 Bft) 100,00 %
21.04.2019 21:19 13,5 C 51 % 1017,1 hPa 0,0 l/m 0,6 km/h (0 Bft) S 186 0 min 0,025 mm 0 W/m 3,6 C 13,5 C 1,6 km/h (1 Bft) 100,00 %
21.04.2019 20:19 16,7 C 42 % 1017,0 hPa 0,0 l/m 0,0 km/h (0 Bft) S 183 0 min 0,051 mm 0 W/m 3,7 C 16,7 C 0,0 km/h (0 Bft) 100,00 %
21.04.2019 19:19 20,3 C 32 % 1016,9 hPa 0,0 l/m 4,5 km/h (1 Bft) N-NO 28 12 min 0,152 mm 30 W/m 3,1 C 20,3 C 6,4 km/h (2 Bft) 100,00 %
21.04.2019 18:19 21,9 C 30 % 1017,3 hPa 0,0 l/m 6,6 km/h (2 Bft) NO 34 60 min 0,254 mm 193 W/m 3,5 C 21,8 C 9,7 km/h (2 Bft) 100,00 %
21.04.2019 17:19 22,1 C 31 % 1017,8 hPa 0,0 l/m 5,7 km/h (1 Bft) N-NW 331 60 min 0,356 mm 357 W/m 4,2 C 22,1 C 9,7 km/h (2 Bft) 100,00 %
21.04.2019 16:19 22,8 C 32 % 1018,2 hPa 0,0 l/m 5,7 km/h (1 Bft) NW 304 60 min 0,432 mm 506 W/m 5,2 C 22,8 C 8,0 km/h (2 Bft) 92,00 %
21.04.2019 15:19 22,2 C 33 % 1018,7 hPa 0,0 l/m 2,4 km/h (1 Bft) O-NO 58 60 min 0,508 mm 635 W/m 5,2 C 22,2 C 4,8 km/h (1 Bft) 96,00 %
21.04.2019 14:19 21,7 C 34 % 1019,7 hPa 0,0 l/m 6,5 km/h (2 Bft) O 87 60 min 0,508 mm 735 W/m 5,2 C 21,7 C 8,0 km/h (2 Bft) 100,00 %
21.04.2019 13:19 21,4 C 34 % 1020,3 hPa 0,0 l/m 3,0 km/h (1 Bft) S-SW 210 60 min 0,508 mm 777 W/m 4,9 C 21,4 C 6,4 km/h (2 Bft) 100,00 %
21.04.2019 12:19 20,7 C 37 % 1021,2 hPa 0,0 l/m 12,7 km/h (3 Bft) O-NO 78 60 min 0,457 mm 766 W/m 5,5 C 18,7 C 16,1 km/h (3 Bft) 96,00 %
21.04.2019 11:19 19,3 C 36 % 1021,7 hPa 0,0 l/m 5,4 km/h (1 Bft) N-NO 16 19 min 0,381 mm 714 W/m 3,9 C 19,3 C 9,7 km/h (2 Bft) 100,00 %
21.04.2019 11:00 19,1 C 36 % 1021,9 hPa 0,0 l/m 3,5 km/h (1 Bft) SW 217 0 min 0,381 mm 687 W/m 3,7 C 19,1 C 4,8 km/h (1 Bft) 100,00 %
_ Min-Zeit 06:32 18:01 10:19 - 08:55 - - - - - 06:23 06:32 08:55 11:13
Minimum _ 3,2 C 28 % 1012,7 hPa - 0,0 km/h (0 Bft) - - - - - -0,3 C 3,2 C 0,0 km/h (0 Bft) 81,82 %
_ Max-Zeit 16:27 07:10 11:08 10:19 13:47 - - 10:19 15:01 12:56 10:19 16:24 12:54 10:19
Maximum _ 22,9 C 84 % 1021,9 hPa 0,0 l/m 13,9 km/h
O (3 Bft)
- - 1 min 0,508 mm 780 W/m 6,7 C 22,9 C 20,9 km/h
O-SO (4 Bft)
100,00 %
Durchschnitt _ 14,1 C 52 % 1017,1 hPa #0,0 l/m 3,2 km/h (1 Bft) S - #3:04 h #0,737 mm 294 W/m 3,2 C 14,0 C 4,9 km/h (1 Bft) 99,28 %